sensor_id;sensor_type;location;lat;lon;timestamp;P1;durP1;ratioP1;P2;durP2;ratioP2
16385;SDS011;8302;51.154;4.456;2022-12-16T00:00:23;12.27;;;6.35;;
16385;SDS011;8302;51.154;4.456;2022-12-16T00:02:51;9.98;;;6.05;;
16385;SDS011;8302;51.154;4.456;2022-12-16T00:05:19;9.55;;;5.70;;
16385;SDS011;8302;51.154;4.456;2022-12-16T00:07:48;13.02;;;5.60;;
16385;SDS011;8302;51.154;4.456;2022-12-16T00:10:18;18.25;;;5.30;;
16385;SDS011;8302;51.154;4.456;2022-12-16T00:12:46;9.63;;;5.78;;
16385;SDS011;8302;51.154;4.456;2022-12-16T00:15:17;12.43;;;5.68;;
16385;SDS011;8302;51.154;4.456;2022-12-16T00:17:46;8.38;;;5.88;;
16385;SDS011;8302;51.154;4.456;2022-12-16T00:20:14;11.13;;;5.68;;
16385;SDS011;8302;51.154;4.456;2022-12-16T00:22:44;9.77;;;5.47;;
16385;SDS011;8302;51.154;4.456;2022-12-16T00:25:13;10.20;;;5.88;;
16385;SDS011;8302;51.154;4.456;2022-12-16T00:27:42;8.18;;;5.18;;
16385;SDS011;8302;51.154;4.456;2022-12-16T00:30:11;10.02;;;5.53;;
16385;SDS011;8302;51.154;4.456;2022-12-16T00:32:39;16.23;;;5.97;;
16385;SDS011;8302;51.154;4.456;2022-12-16T00:35:07;10.57;;;5.65;;
16385;SDS011;8302;51.154;4.456;2022-12-16T00:37:37;10.10;;;4.90;;
16385;SDS011;8302;51.154;4.456;2022-12-16T00:40:06;6.97;;;5.38;;
16385;SDS011;8302;51.154;4.456;2022-12-16T00:42:34;11.18;;;6.13;;
16385;SDS011;8302;51.154;4.456;2022-12-16T00:45:06;9.13;;;5.55;;
16385;SDS011;8302;51.154;4.456;2022-12-16T00:47:35;9.48;;;6.07;;
16385;SDS011;8302;51.154;4.456;2022-12-16T00:50:09;10.50;;;5.20;;
16385;SDS011;8302;51.154;4.456;2022-12-16T00:52:38;6.82;;;4.88;;
16385;SDS011;8302;51.154;4.456;2022-12-16T00:55:07;8.50;;;5.70;;
16385;SDS011;8302;51.154;4.456;2022-12-16T00:57:35;10.38;;;6.43;;
16385;SDS011;8302;51.154;4.456;2022-12-16T01:00:07;8.95;;;6.13;;
16385;SDS011;8302;51.154;4.456;2022-12-16T01:02:38;8.52;;;5.63;;
16385;SDS011;8302;51.154;4.456;2022-12-16T01:05:07;13.52;;;6.25;;
16385;SDS011;8302;51.154;4.456;2022-12-16T01:07:36;8.35;;;4.88;;
16385;SDS011;8302;51.154;4.456;2022-12-16T01:10:04;6.30;;;4.63;;
16385;SDS011;8302;51.154;4.456;2022-12-16T01:12:33;11.48;;;6.90;;
16385;SDS011;8302;51.154;4.456;2022-12-16T01:15:03;10.45;;;5.95;;
16385;SDS011;8302;51.154;4.456;2022-12-16T01:17:33;10.35;;;6.35;;
16385;SDS011;8302;51.154;4.456;2022-12-16T01:20:01;9.10;;;6.40;;
16385;SDS011;8302;51.154;4.456;2022-12-16T01:22:30;10.77;;;6.00;;
16385;SDS011;8302;51.154;4.456;2022-12-16T01:24:58;9.57;;;6.30;;
16385;SDS011;8302;51.154;4.456;2022-12-16T01:27:27;10.35;;;5.45;;
16385;SDS011;8302;51.154;4.456;2022-12-16T01:29:55;8.40;;;5.65;;
16385;SDS011;8302;51.154;4.456;2022-12-16T01:32:23;8.65;;;5.07;;
16385;SDS011;8302;51.154;4.456;2022-12-16T01:34:53;8.73;;;5.57;;
16385;SDS011;8302;51.154;4.456;2022-12-16T01:37:22;7.28;;;5.68;;
16385;SDS011;8302;51.154;4.456;2022-12-16T01:39:50;9.23;;;5.57;;
16385;SDS011;8302;51.154;4.456;2022-12-16T01:42:20;6.63;;;5.28;;
16385;SDS011;8302;51.154;4.456;2022-12-16T01:44:49;7.63;;;4.80;;
16385;SDS011;8302;51.154;4.456;2022-12-16T01:47:18;11.68;;;5.50;;
16385;SDS011;8302;51.154;4.456;2022-12-16T01:49:50;12.20;;;5.65;;
16385;SDS011;8302;51.154;4.456;2022-12-16T01:52:22;7.22;;;5.18;;
16385;SDS011;8302;51.154;4.456;2022-12-16T01:54:54;8.57;;;5.72;;
16385;SDS011;8302;51.154;4.456;2022-12-16T01:57:25;10.10;;;5.60;;
16385;SDS011;8302;51.154;4.456;2022-12-16T01:59:56;15.15;;;5.90;;
16385;SDS011;8302;51.154;4.456;2022-12-16T02:02:24;9.23;;;5.57;;
16385;SDS011;8302;51.154;4.456;2022-12-16T02:04:53;10.35;;;5.80;;
16385;SDS011;8302;51.154;4.456;2022-12-16T02:07:39;11.50;;;5.38;;
16385;SDS011;8302;51.154;4.456;2022-12-16T02:10:07;5.43;;;4.07;;
16385;SDS011;8302;51.154;4.456;2022-12-16T02:12:39;9.68;;;5.13;;
16385;SDS011;8302;51.154;4.456;2022-12-16T02:17:56;11.18;;;6.03;;
16385;SDS011;8302;51.154;4.456;2022-12-16T02:28:58;13.30;;;5.93;;
16385;SDS011;8302;51.154;4.456;2022-12-16T02:31:35;11.93;;;5.57;;
16385;SDS011;8302;51.154;4.456;2022-12-16T02:34:07;9.65;;;5.07;;
16385;SDS011;8302;51.154;4.456;2022-12-16T02:36:41;7.93;;;5.63;;
16385;SDS011;8302;51.154;4.456;2022-12-16T02:39:11;10.35;;;5.93;;
16385;SDS011;8302;51.154;4.456;2022-12-16T02:41:41;7.40;;;4.80;;
16385;SDS011;8302;51.154;4.456;2022-12-16T02:44:10;11.65;;;5.32;;
16385;SDS011;8302;51.154;4.456;2022-12-16T02:46:41;6.28;;;4.68;;
16385;SDS011;8302;51.154;4.456;2022-12-16T02:51:52;5.15;;;4.57;;
16385;SDS011;8302;51.154;4.456;2022-12-16T02:54:21;8.82;;;5.03;;
16385;SDS011;8302;51.154;4.456;2022-12-16T02:56:52;7.13;;;5.25;;
16385;SDS011;8302;51.154;4.456;2022-12-16T02:59:26;8.85;;;5.35;;
16385;SDS011;8302;51.154;4.456;2022-12-16T03:02:00;12.00;;;5.57;;
16385;SDS011;8302;51.154;4.456;2022-12-16T03:04:34;11.52;;;5.70;;
16385;SDS011;8302;51.154;4.456;2022-12-16T03:07:04;12.55;;;5.90;;
16385;SDS011;8302;51.154;4.456;2022-12-16T03:09:34;6.53;;;4.57;;
16385;SDS011;8302;51.154;4.456;2022-12-16T03:12:05;5.88;;;4.50;;
16385;SDS011;8302;51.154;4.456;2022-12-16T03:14:35;9.98;;;5.85;;
16385;SDS011;8302;51.154;4.456;2022-12-16T03:17:07;8.30;;;4.13;;
16385;SDS011;8302;51.154;4.456;2022-12-16T03:19:35;9.10;;;4.50;;
16385;SDS011;8302;51.154;4.456;2022-12-16T03:22:06;9.38;;;4.78;;
16385;SDS011;8302;51.154;4.456;2022-12-16T03:24:35;7.53;;;4.55;;
16385;SDS011;8302;51.154;4.456;2022-12-16T03:27:04;7.85;;;3.47;;
16385;SDS011;8302;51.154;4.456;2022-12-16T03:29:36;11.27;;;4.55;;
16385;SDS011;8302;51.154;4.456;2022-12-16T03:32:08;8.80;;;4.80;;
16385;SDS011;8302;51.154;4.456;2022-12-16T03:34:37;6.18;;;3.67;;
16385;SDS011;8302;51.154;4.456;2022-12-16T03:37:09;7.22;;;4.25;;
16385;SDS011;8302;51.154;4.456;2022-12-16T03:39:38;5.90;;;4.55;;
16385;SDS011;8302;51.154;4.456;2022-12-16T03:42:09;8.93;;;4.45;;
16385;SDS011;8302;51.154;4.456;2022-12-16T03:44:38;9.85;;;5.07;;
16385;SDS011;8302;51.154;4.456;2022-12-16T03:47:07;5.32;;;3.30;;
16385;SDS011;8302;51.154;4.456;2022-12-16T03:49:36;5.00;;;3.78;;
16385;SDS011;8302;51.154;4.456;2022-12-16T03:52:05;6.03;;;3.65;;
16385;SDS011;8302;51.154;4.456;2022-12-16T03:54:35;6.22;;;3.97;;
16385;SDS011;8302;51.154;4.456;2022-12-16T03:57:03;6.18;;;3.45;;
16385;SDS011;8302;51.154;4.456;2022-12-16T03:59:37;6.50;;;3.55;;
16385;SDS011;8302;51.154;4.456;2022-12-16T04:02:05;7.93;;;4.35;;
16385;SDS011;8302;51.154;4.456;2022-12-16T04:04:35;6.75;;;4.55;;
16385;SDS011;8302;51.154;4.456;2022-12-16T04:07:02;6.50;;;4.32;;
16385;SDS011;8302;51.154;4.456;2022-12-16T04:09:50;5.82;;;3.80;;
16385;SDS011;8302;51.154;4.456;2022-12-16T04:12:18;6.78;;;5.13;;
16385;SDS011;8302;51.154;4.456;2022-12-16T04:15:04;8.05;;;4.55;;
16385;SDS011;8302;51.154;4.456;2022-12-16T04:17:50;6.45;;;3.40;;
16385;SDS011;8302;51.154;4.456;2022-12-16T04:20:38;4.35;;;2.92;;
16385;SDS011;8302;51.154;4.456;2022-12-16T04:23:24;5.65;;;4.22;;
16385;SDS011;8302;51.154;4.456;2022-12-16T04:26:18;9.15;;;4.22;;
16385;SDS011;8302;51.154;4.456;2022-12-16T04:28:46;5.60;;;3.78;;
16385;SDS011;8302;51.154;4.456;2022-12-16T04:31:14;4.38;;;3.22;;
16385;SDS011;8302;51.154;4.456;2022-12-16T04:33:42;8.15;;;3.38;;
16385;SDS011;8302;51.154;4.456;2022-12-16T04:36:29;3.50;;;3.20;;
16385;SDS011;8302;51.154;4.456;2022-12-16T04:39:14;5.78;;;3.75;;
16385;SDS011;8302;51.154;4.456;2022-12-16T04:41:59;9.13;;;3.90;;
16385;SDS011;8302;51.154;4.456;2022-12-16T04:44:44;6.25;;;4.05;;
16385;SDS011;8302;51.154;4.456;2022-12-16T04:47:29;4.93;;;3.33;;
16385;SDS011;8302;51.154;4.456;2022-12-16T04:50:22;5.07;;;3.33;;
16385;SDS011;8302;51.154;4.456;2022-12-16T04:53:09;9.95;;;3.97;;
16385;SDS011;8302;51.154;4.456;2022-12-16T04:55:54;6.28;;;3.38;;
16385;SDS011;8302;51.154;4.456;2022-12-16T04:58:40;6.57;;;3.50;;
16385;SDS011;8302;51.154;4.456;2022-12-16T05:01:25;6.72;;;2.95;;
16385;SDS011;8302;51.154;4.456;2022-12-16T05:04:22;6.60;;;3.17;;
16385;SDS011;8302;51.154;4.456;2022-12-16T05:07:07;9.20;;;3.65;;
16385;SDS011;8302;51.154;4.456;2022-12-16T05:09:53;5.65;;;3.05;;
16385;SDS011;8302;51.154;4.456;2022-12-16T05:12:39;4.10;;;3.15;;
16385;SDS011;8302;51.154;4.456;2022-12-16T05:15:24;4.65;;;3.28;;
16385;SDS011;8302;51.154;4.456;2022-12-16T05:18:10;3.13;;;2.45;;
16385;SDS011;8302;51.154;4.456;2022-12-16T05:21:10;6.80;;;3.08;;
16385;SDS011;8302;51.154;4.456;2022-12-16T05:23:55;3.97;;;2.65;;
16385;SDS011;8302;51.154;4.456;2022-12-16T05:26:42;4.68;;;2.88;;
16385;SDS011;8302;51.154;4.456;2022-12-16T05:29:27;3.35;;;2.50;;
16385;SDS011;8302;51.154;4.456;2022-12-16T05:32:27;4.57;;;3.00;;
16385;SDS011;8302;51.154;4.456;2022-12-16T05:35:09;8.93;;;2.08;;
16385;SDS011;8302;51.154;4.456;2022-12-16T05:37:54;6.13;;;2.92;;
16385;SDS011;8302;51.154;4.456;2022-12-16T05:40:39;6.00;;;2.95;;
16385;SDS011;8302;51.154;4.456;2022-12-16T05:43:26;2.47;;;2.13;;
16385;SDS011;8302;51.154;4.456;2022-12-16T05:46:11;2.33;;;2.13;;
16385;SDS011;8302;51.154;4.456;2022-12-16T05:48:56;5.22;;;2.50;;
16385;SDS011;8302;51.154;4.456;2022-12-16T05:51:41;4.88;;;2.70;;
16385;SDS011;8302;51.154;4.456;2022-12-16T05:54:26;10.90;;;2.55;;
16385;SDS011;8302;51.154;4.456;2022-12-16T05:57:12;6.05;;;2.75;;
16385;SDS011;8302;51.154;4.456;2022-12-16T05:59:58;5.38;;;2.42;;
16385;SDS011;8302;51.154;4.456;2022-12-16T06:02:44;4.50;;;2.45;;
16385;SDS011;8302;51.154;4.456;2022-12-16T06:05:29;2.97;;;2.25;;
16385;SDS011;8302;51.154;4.456;2022-12-16T06:08:14;7.60;;;2.75;;
16385;SDS011;8302;51.154;4.456;2022-12-16T06:11:00;4.72;;;2.78;;
16385;SDS011;8302;51.154;4.456;2022-12-16T06:13:44;5.35;;;3.05;;
16385;SDS011;8302;51.154;4.456;2022-12-16T06:16:31;2.53;;;2.25;;
16385;SDS011;8302;51.154;4.456;2022-12-16T06:19:17;2.15;;;1.92;;
16385;SDS011;8302;51.154;4.456;2022-12-16T06:22:02;9.93;;;3.10;;
16385;SDS011;8302;51.154;4.456;2022-12-16T06:24:48;4.35;;;2.50;;
16385;SDS011;8302;51.154;4.456;2022-12-16T06:27:33;4.55;;;2.65;;
16385;SDS011;8302;51.154;4.456;2022-12-16T06:30:18;6.15;;;2.78;;
16385;SDS011;8302;51.154;4.456;2022-12-16T06:33:05;5.13;;;2.33;;
16385;SDS011;8302;51.154;4.456;2022-12-16T06:35:50;8.82;;;3.42;;
16385;SDS011;8302;51.154;4.456;2022-12-16T06:38:35;2.00;;;1.83;;
16385;SDS011;8302;51.154;4.456;2022-12-16T06:41:20;3.95;;;2.47;;
16385;SDS011;8302;51.154;4.456;2022-12-16T06:44:05;6.65;;;2.33;;
16385;SDS011;8302;51.154;4.456;2022-12-16T06:46:51;3.80;;;2.28;;
16385;SDS011;8302;51.154;4.456;2022-12-16T06:49:38;10.43;;;3.55;;
16385;SDS011;8302;51.154;4.456;2022-12-16T06:52:23;4.57;;;2.17;;
16385;SDS011;8302;51.154;4.456;2022-12-16T06:55:08;2.92;;;2.35;;
16385;SDS011;8302;51.154;4.456;2022-12-16T06:57:55;5.53;;;3.13;;
16385;SDS011;8302;51.154;4.456;2022-12-16T07:00:40;2.25;;;1.77;;
16385;SDS011;8302;51.154;4.456;2022-12-16T07:03:26;3.80;;;2.33;;
16385;SDS011;8302;51.154;4.456;2022-12-16T07:06:12;2.58;;;1.88;;
16385;SDS011;8302;51.154;4.456;2022-12-16T07:08:57;3.70;;;2.92;;
16385;SDS011;8302;51.154;4.456;2022-12-16T07:11:43;6.57;;;3.15;;
16385;SDS011;8302;51.154;4.456;2022-12-16T07:14:28;4.03;;;2.55;;
16385;SDS011;8302;51.154;4.456;2022-12-16T07:17:14;4.18;;;2.42;;
16385;SDS011;8302;51.154;4.456;2022-12-16T07:20:02;3.28;;;2.05;;
16385;SDS011;8302;51.154;4.456;2022-12-16T07:22:49;4.43;;;1.85;;
16385;SDS011;8302;51.154;4.456;2022-12-16T07:25:44;4.18;;;2.25;;
16385;SDS011;8302;51.154;4.456;2022-12-16T07:28:29;3.17;;;2.33;;
16385;SDS011;8302;51.154;4.456;2022-12-16T07:31:14;7.72;;;1.75;;
16385;SDS011;8302;51.154;4.456;2022-12-16T07:34:00;2.55;;;1.85;;
16385;SDS011;8302;51.154;4.456;2022-12-16T07:36:45;6.13;;;3.13;;
16385;SDS011;8302;51.154;4.456;2022-12-16T07:39:31;7.47;;;2.55;;
16385;SDS011;8302;51.154;4.456;2022-12-16T07:42:20;3.90;;;2.15;;
16385;SDS011;8302;51.154;4.456;2022-12-16T07:45:06;9.73;;;3.45;;
16385;SDS011;8302;51.154;4.456;2022-12-16T07:47:52;1.90;;;1.70;;
16385;SDS011;8302;51.154;4.456;2022-12-16T07:50:37;4.20;;;1.83;;
16385;SDS011;8302;51.154;4.456;2022-12-16T07:53:23;3.95;;;2.10;;
16385;SDS011;8302;51.154;4.456;2022-12-16T07:56:10;4.70;;;2.58;;
16385;SDS011;8302;51.154;4.456;2022-12-16T07:59:06;1.85;;;1.63;;
16385;SDS011;8302;51.154;4.456;2022-12-16T08:01:52;4.80;;;2.28;;
16385;SDS011;8302;51.154;4.456;2022-12-16T08:04:38;5.55;;;2.40;;
16385;SDS011;8302;51.154;4.456;2022-12-16T08:07:23;3.90;;;1.83;;
16385;SDS011;8302;51.154;4.456;2022-12-16T08:10:08;2.78;;;2.03;;
16385;SDS011;8302;51.154;4.456;2022-12-16T08:12:59;3.03;;;1.77;;
16385;SDS011;8302;51.154;4.456;2022-12-16T08:15:51;1.95;;;1.52;;
16385;SDS011;8302;51.154;4.456;2022-12-16T08:18:51;2.42;;;1.70;;
16385;SDS011;8302;51.154;4.456;2022-12-16T08:21:37;2.60;;;1.73;;
16385;SDS011;8302;51.154;4.456;2022-12-16T08:24:25;5.13;;;2.13;;
16385;SDS011;8302;51.154;4.456;2022-12-16T08:27:18;4.00;;;1.80;;
16385;SDS011;8302;51.154;4.456;2022-12-16T08:30:06;2.00;;;1.40;;
16385;SDS011;8302;51.154;4.456;2022-12-16T08:32:52;4.70;;;1.67;;
16385;SDS011;8302;51.154;4.456;2022-12-16T08:35:45;5.20;;;2.03;;
16385;SDS011;8302;51.154;4.456;2022-12-16T08:38:30;1.95;;;1.48;;
16385;SDS011;8302;51.154;4.456;2022-12-16T08:41:16;3.78;;;1.58;;
16385;SDS011;8302;51.154;4.456;2022-12-16T08:44:01;1.95;;;1.38;;
16385;SDS011;8302;51.154;4.456;2022-12-16T08:46:48;2.55;;;2.05;;
16385;SDS011;8302;51.154;4.456;2022-12-16T08:49:34;4.88;;;1.90;;
16385;SDS011;8302;51.154;4.456;2022-12-16T08:52:26;4.30;;;2.28;;
16385;SDS011;8302;51.154;4.456;2022-12-16T08:55:12;2.90;;;1.55;;
16385;SDS011;8302;51.154;4.456;2022-12-16T08:57:57;0.90;;;0.90;;
16385;SDS011;8302;51.154;4.456;2022-12-16T09:00:42;2.63;;;1.83;;
16385;SDS011;8302;51.154;4.456;2022-12-16T09:03:34;4.45;;;1.90;;
16385;SDS011;8302;51.154;4.456;2022-12-16T09:06:20;1.83;;;1.38;;
16385;SDS011;8302;51.154;4.456;2022-12-16T09:09:06;1.35;;;1.23;;
16385;SDS011;8302;51.154;4.456;2022-12-16T09:11:51;2.55;;;1.25;;
16385;SDS011;8302;51.154;4.456;2022-12-16T09:14:37;3.35;;;1.52;;
16385;SDS011;8302;51.154;4.456;2022-12-16T09:17:22;2.72;;;1.35;;
16385;SDS011;8302;51.154;4.456;2022-12-16T09:20:09;2.50;;;1.17;;
16385;SDS011;8302;51.154;4.456;2022-12-16T09:22:55;2.08;;;1.45;;
16385;SDS011;8302;51.154;4.456;2022-12-16T09:25:40;1.67;;;1.48;;
16385;SDS011;8302;51.154;4.456;2022-12-16T09:28:26;7.43;;;1.25;;
16385;SDS011;8302;51.154;4.456;2022-12-16T09:31:11;1.35;;;0.98;;
16385;SDS011;8302;51.154;4.456;2022-12-16T09:33:56;2.58;;;2.15;;
16385;SDS011;8302;51.154;4.456;2022-12-16T09:36:44;3.35;;;1.65;;
16385;SDS011;8302;51.154;4.456;2022-12-16T09:39:29;1.77;;;1.48;;
16385;SDS011;8302;51.154;4.456;2022-12-16T09:42:17;2.47;;;1.25;;
16385;SDS011;8302;51.154;4.456;2022-12-16T09:45:07;1.33;;;1.13;;
16385;SDS011;8302;51.154;4.456;2022-12-16T09:47:59;1.83;;;1.33;;
16385;SDS011;8302;51.154;4.456;2022-12-16T09:50:50;1.70;;;1.60;;
16385;SDS011;8302;51.154;4.456;2022-12-16T09:53:41;1.60;;;1.25;;
16385;SDS011;8302;51.154;4.456;2022-12-16T09:56:32;2.25;;;0.88;;
16385;SDS011;8302;51.154;4.456;2022-12-16T09:59:21;1.30;;;1.20;;
16385;SDS011;8302;51.154;4.456;2022-12-16T10:02:10;1.77;;;0.85;;
16385;SDS011;8302;51.154;4.456;2022-12-16T10:04:56;2.85;;;1.33;;
16385;SDS011;8302;51.154;4.456;2022-12-16T10:07:45;3.08;;;1.73;;
16385;SDS011;8302;51.154;4.456;2022-12-16T10:10:33;3.03;;;1.42;;
16385;SDS011;8302;51.154;4.456;2022-12-16T10:13:21;3.33;;;1.67;;
16385;SDS011;8302;51.154;4.456;2022-12-16T10:16:11;2.28;;;0.75;;
16385;SDS011;8302;51.154;4.456;2022-12-16T10:19:00;4.88;;;1.25;;
16385;SDS011;8302;51.154;4.456;2022-12-16T10:21:50;4.90;;;0.63;;
16385;SDS011;8302;51.154;4.456;2022-12-16T10:24:41;1.58;;;1.02;;
16385;SDS011;8302;51.154;4.456;2022-12-16T10:27:31;1.25;;;1.08;;
16385;SDS011;8302;51.154;4.456;2022-12-16T10:30:19;0.75;;;0.75;;
16385;SDS011;8302;51.154;4.456;2022-12-16T10:33:06;1.40;;;0.82;;
16385;SDS011;8302;51.154;4.456;2022-12-16T10:35:53;0.95;;;0.85;;
16385;SDS011;8302;51.154;4.456;2022-12-16T10:38:40;1.45;;;0.90;;
16385;SDS011;8302;51.154;4.456;2022-12-16T10:41:28;1.65;;;1.55;;
16385;SDS011;8302;51.154;4.456;2022-12-16T10:44:21;0.68;;;0.68;;
16385;SDS011;8302;51.154;4.456;2022-12-16T10:47:08;1.58;;;1.02;;
16385;SDS011;8302;51.154;4.456;2022-12-16T10:50:11;5.00;;;1.20;;
16385;SDS011;8302;51.154;4.456;2022-12-16T10:52:56;0.88;;;0.70;;
16385;SDS011;8302;51.154;4.456;2022-12-16T10:55:48;1.58;;;1.02;;
16385;SDS011;8302;51.154;4.456;2022-12-16T10:58:40;4.53;;;1.70;;
16385;SDS011;8302;51.154;4.456;2022-12-16T11:01:28;2.28;;;1.48;;
16385;SDS011;8302;51.154;4.456;2022-12-16T11:07:22;0.88;;;0.80;;
16385;SDS011;8302;51.154;4.456;2022-12-16T11:10:24;1.00;;;0.90;;
16385;SDS011;8302;51.154;4.456;2022-12-16T11:13:19;1.33;;;1.20;;
16385;SDS011;8302;51.154;4.456;2022-12-16T11:16:25;0.82;;;0.82;;
16385;SDS011;8302;51.154;4.456;2022-12-16T11:19:19;0.95;;;0.95;;
16385;SDS011;8302;51.154;4.456;2022-12-16T11:22:05;0.73;;;0.73;;
16385;SDS011;8302;51.154;4.456;2022-12-16T11:25:02;1.50;;;1.05;;
16385;SDS011;8302;51.154;4.456;2022-12-16T11:28:00;1.10;;;0.77;;
16385;SDS011;8302;51.154;4.456;2022-12-16T11:30:48;1.90;;;0.98;;
16385;SDS011;8302;51.154;4.456;2022-12-16T11:33:35;0.50;;;0.50;;
16385;SDS011;8302;51.154;4.456;2022-12-16T11:36:22;1.38;;;0.90;;
16385;SDS011;8302;51.154;4.456;2022-12-16T11:39:12;0.50;;;0.50;;
16385;SDS011;8302;51.154;4.456;2022-12-16T11:41:57;1.40;;;0.88;;
16385;SDS011;8302;51.154;4.456;2022-12-16T11:44:44;0.73;;;0.52;;
16385;SDS011;8302;51.154;4.456;2022-12-16T11:47:33;1.25;;;1.02;;
16385;SDS011;8302;51.154;4.456;2022-12-16T11:50:19;0.60;;;0.60;;
16385;SDS011;8302;51.154;4.456;2022-12-16T11:53:11;1.48;;;0.93;;
16385;SDS011;8302;51.154;4.456;2022-12-16T11:56:04;0.60;;;0.50;;
16385;SDS011;8302;51.154;4.456;2022-12-16T11:58:50;1.88;;;1.00;;
16385;SDS011;8302;51.154;4.456;2022-12-16T12:01:48;0.68;;;0.45;;
16385;SDS011;8302;51.154;4.456;2022-12-16T12:04:36;1.00;;;0.85;;
16385;SDS011;8302;51.154;4.456;2022-12-16T12:07:24;0.70;;;0.55;;
16385;SDS011;8302;51.154;4.456;2022-12-16T12:13:29;0.55;;;0.55;;
16385;SDS011;8302;51.154;4.456;2022-12-16T12:16:23;0.52;;;0.52;;
16385;SDS011;8302;51.154;4.456;2022-12-16T12:19:11;0.47;;;0.43;;
16385;SDS011;8302;51.154;4.456;2022-12-16T12:21:58;1.35;;;0.90;;
16385;SDS011;8302;51.154;4.456;2022-12-16T12:24:46;3.80;;;1.40;;
16385;SDS011;8302;51.154;4.456;2022-12-16T12:27:34;1.73;;;0.75;;
16385;SDS011;8302;51.154;4.456;2022-12-16T12:30:23;1.25;;;0.63;;
16385;SDS011;8302;51.154;4.456;2022-12-16T12:33:14;0.70;;;0.70;;
16385;SDS011;8302;51.154;4.456;2022-12-16T12:36:05;1.65;;;1.02;;
16385;SDS011;8302;51.154;4.456;2022-12-16T12:39:00;0.40;;;0.40;;
16385;SDS011;8302;51.154;4.456;2022-12-16T12:41:51;2.15;;;0.60;;
16385;SDS011;8302;51.154;4.456;2022-12-16T12:44:39;0.60;;;0.60;;
16385;SDS011;8302;51.154;4.456;2022-12-16T12:47:32;1.95;;;1.30;;
16385;SDS011;8302;51.154;4.456;2022-12-16T12:50:19;0.55;;;0.55;;
16385;SDS011;8302;51.154;4.456;2022-12-16T12:53:11;1.00;;;0.63;;
16385;SDS011;8302;51.154;4.456;2022-12-16T12:56:01;0.45;;;0.45;;
16385;SDS011;8302;51.154;4.456;2022-12-16T12:58:49;0.68;;;0.68;;
16385;SDS011;8302;51.154;4.456;2022-12-16T13:01:36;0.20;;;0.20;;
16385;SDS011;8302;51.154;4.456;2022-12-16T13:04:26;1.20;;;0.77;;
16385;SDS011;8302;51.154;4.456;2022-12-16T13:07:13;0.43;;;0.30;;
16385;SDS011;8302;51.154;4.456;2022-12-16T13:10:12;0.60;;;0.60;;
16385;SDS011;8302;51.154;4.456;2022-12-16T13:16:03;0.85;;;0.73;;
16385;SDS011;8302;51.154;4.456;2022-12-16T13:18:51;0.68;;;0.68;;
16385;SDS011;8302;51.154;4.456;2022-12-16T13:21:58;1.33;;;0.70;;
16385;SDS011;8302;51.154;4.456;2022-12-16T13:24:55;0.55;;;0.50;;
16385;SDS011;8302;51.154;4.456;2022-12-16T13:27:49;0.35;;;0.35;;
16385;SDS011;8302;51.154;4.456;2022-12-16T13:30:36;0.30;;;0.30;;
16385;SDS011;8302;51.154;4.456;2022-12-16T13:33:23;0.50;;;0.50;;
16385;SDS011;8302;51.154;4.456;2022-12-16T13:36:08;0.30;;;0.30;;
16385;SDS011;8302;51.154;4.456;2022-12-16T13:38:56;0.35;;;0.30;;
16385;SDS011;8302;51.154;4.456;2022-12-16T13:41:48;2.05;;;0.75;;
16385;SDS011;8302;51.154;4.456;2022-12-16T13:44:56;0.47;;;0.43;;
16385;SDS011;8302;51.154;4.456;2022-12-16T13:47:58;0.60;;;0.60;;
16385;SDS011;8302;51.154;4.456;2022-12-16T13:50:44;0.70;;;0.70;;
16385;SDS011;8302;51.154;4.456;2022-12-16T13:53:30;0.82;;;0.82;;
16385;SDS011;8302;51.154;4.456;2022-12-16T13:56:19;0.90;;;0.50;;
16385;SDS011;8302;51.154;4.456;2022-12-16T13:59:10;0.52;;;0.52;;
16385;SDS011;8302;51.154;4.456;2022-12-16T14:02:01;0.68;;;0.50;;
16385;SDS011;8302;51.154;4.456;2022-12-16T14:04:58;0.73;;;0.73;;
16385;SDS011;8302;51.154;4.456;2022-12-16T14:07:45;1.08;;;0.63;;
16385;SDS011;8302;51.154;4.456;2022-12-16T14:10:31;2.08;;;1.08;;
16385;SDS011;8302;51.154;4.456;2022-12-16T14:13:21;1.65;;;0.57;;
16385;SDS011;8302;51.154;4.456;2022-12-16T14:16:10;0.55;;;0.55;;
16385;SDS011;8302;51.154;4.456;2022-12-16T14:19:02;0.65;;;0.63;;
16385;SDS011;8302;51.154;4.456;2022-12-16T14:21:50;0.75;;;0.75;;
16385;SDS011;8302;51.154;4.456;2022-12-16T14:24:36;1.13;;;0.70;;
16385;SDS011;8302;51.154;4.456;2022-12-16T14:27:22;0.13;;;0.13;;
16385;SDS011;8302;51.154;4.456;2022-12-16T14:30:18;1.02;;;0.47;;
16385;SDS011;8302;51.154;4.456;2022-12-16T14:33:18;0.32;;;0.32;;
16385;SDS011;8302;51.154;4.456;2022-12-16T14:36:17;1.50;;;0.85;;
16385;SDS011;8302;51.154;4.456;2022-12-16T14:38:59;0.47;;;0.47;;
16385;SDS011;8302;51.154;4.456;2022-12-16T14:41:44;0.55;;;0.52;;
16385;SDS011;8302;51.154;4.456;2022-12-16T14:44:34;1.65;;;0.38;;
16385;SDS011;8302;51.154;4.456;2022-12-16T14:47:30;1.27;;;0.85;;
16385;SDS011;8302;51.154;4.456;2022-12-16T14:50:20;4.45;;;2.40;;
16385;SDS011;8302;51.154;4.456;2022-12-16T14:53:13;0.50;;;0.50;;
16385;SDS011;8302;51.154;4.456;2022-12-16T14:56:13;0.40;;;0.30;;
16385;SDS011;8302;51.154;4.456;2022-12-16T14:59:05;0.55;;;0.50;;
16385;SDS011;8302;51.154;4.456;2022-12-16T15:01:51;0.20;;;0.20;;
16385;SDS011;8302;51.154;4.456;2022-12-16T15:04:42;0.50;;;0.40;;
16385;SDS011;8302;51.154;4.456;2022-12-16T15:07:27;0.40;;;0.40;;
16385;SDS011;8302;51.154;4.456;2022-12-16T15:10:16;0.80;;;0.63;;
16385;SDS011;8302;51.154;4.456;2022-12-16T15:13:02;0.65;;;0.65;;
16385;SDS011;8302;51.154;4.456;2022-12-16T15:15:48;0.50;;;0.50;;
16385;SDS011;8302;51.154;4.456;2022-12-16T15:18:35;2.40;;;0.68;;
16385;SDS011;8302;51.154;4.456;2022-12-16T15:21:35;0.35;;;0.35;;
16385;SDS011;8302;51.154;4.456;2022-12-16T15:24:23;0.40;;;0.40;;
16385;SDS011;8302;51.154;4.456;2022-12-16T15:27:13;0.50;;;0.50;;
16385;SDS011;8302;51.154;4.456;2022-12-16T15:29:58;0.52;;;0.47;;
16385;SDS011;8302;51.154;4.456;2022-12-16T15:32:50;0.20;;;0.20;;
16385;SDS011;8302;51.154;4.456;2022-12-16T15:35:36;0.30;;;0.30;;
16385;SDS011;8302;51.154;4.456;2022-12-16T15:38:32;1.35;;;0.68;;
16385;SDS011;8302;51.154;4.456;2022-12-16T15:41:21;0.63;;;0.60;;
16385;SDS011;8302;51.154;4.456;2022-12-16T15:44:14;0.63;;;0.50;;
16385;SDS011;8302;51.154;4.456;2022-12-16T15:47:00;0.40;;;0.40;;
16385;SDS011;8302;51.154;4.456;2022-12-16T15:49:46;0.40;;;0.40;;
16385;SDS011;8302;51.154;4.456;2022-12-16T15:52:33;0.40;;;0.40;;
16385;SDS011;8302;51.154;4.456;2022-12-16T15:55:30;0.55;;;0.47;;
16385;SDS011;8302;51.154;4.456;2022-12-16T15:58:20;0.50;;;0.50;;
16385;SDS011;8302;51.154;4.456;2022-12-16T16:01:02;0.55;;;0.38;;
16385;SDS011;8302;51.154;4.456;2022-12-16T16:03:48;0.28;;;0.28;;
16385;SDS011;8302;51.154;4.456;2022-12-16T16:06:34;2.05;;;0.50;;
16385;SDS011;8302;51.154;4.456;2022-12-16T16:09:21;0.30;;;0.30;;
16385;SDS011;8302;51.154;4.456;2022-12-16T16:12:09;0.75;;;0.65;;
16385;SDS011;8302;51.154;4.456;2022-12-16T16:14:54;1.35;;;0.55;;
16385;SDS011;8302;51.154;4.456;2022-12-16T16:17:39;0.40;;;0.40;;
16385;SDS011;8302;51.154;4.456;2022-12-16T16:20:25;1.38;;;0.70;;
16385;SDS011;8302;51.154;4.456;2022-12-16T16:23:10;0.32;;;0.30;;
16385;SDS011;8302;51.154;4.456;2022-12-16T16:25:56;1.05;;;0.60;;
16385;SDS011;8302;51.154;4.456;2022-12-16T16:28:45;0.88;;;0.63;;
16385;SDS011;8302;51.154;4.456;2022-12-16T16:31:30;0.68;;;0.68;;
16385;SDS011;8302;51.154;4.456;2022-12-16T16:34:15;0.65;;;0.65;;
16385;SDS011;8302;51.154;4.456;2022-12-16T16:37:00;0.63;;;0.52;;
16385;SDS011;8302;51.154;4.456;2022-12-16T16:39:42;0.55;;;0.40;;
16385;SDS011;8302;51.154;4.456;2022-12-16T16:42:28;0.88;;;0.63;;
16385;SDS011;8302;51.154;4.456;2022-12-16T16:45:16;8.52;;;0.85;;
16385;SDS011;8302;51.154;4.456;2022-12-16T16:48:02;0.73;;;0.50;;
16385;SDS011;8302;51.154;4.456;2022-12-16T16:50:49;0.52;;;0.52;;
16385;SDS011;8302;51.154;4.456;2022-12-16T16:53:34;2.67;;;0.98;;
16385;SDS011;8302;51.154;4.456;2022-12-16T16:56:19;0.70;;;0.70;;
16385;SDS011;8302;51.154;4.456;2022-12-16T16:59:04;1.33;;;0.60;;
16385;SDS011;8302;51.154;4.456;2022-12-16T17:01:51;0.65;;;0.50;;